Flight Track Log - Related Links

Times and Time Zones

All times are in EDT time to prevent confusion due to time zone crossing. See the N7260Q flight status page for this flight to view local times or setup timezone preferences in your user account.

Time Position Orientation Groundspeed Altitude Reporting Facility
EDT Latitude Longitude Course Direction KTS MPH feet Rate Location/Type
Sat 01:14:55 PM 27.7667 -82.6167 360° North 135 155 200  Level Tampa TRACON
Sat 01:15:38 PM 27.7833 -82.6167 360° North 89 102 900 816 Climbing Tampa TRACON
Sat 01:16:38 PM 27.7833 -82.6500 270° West 102 117 1,600 600 Climbing Tampa TRACON
Sat 01:17:38 PM 27.7833 -82.6833 270° West 101 116 2,100 550 Climbing Tampa TRACON
Sat 01:18:38 PM 27.7833 -82.7167 270° West 103 119 2,700 550 Climbing Tampa TRACON
Sat 01:19:38 PM 27.7667 -82.7333 222° Southwest 104 120 3,200 550 Climbing Tampa TRACON
Sat 01:20:38 PM 27.7500 -82.7667 241° Southwest 103 119 3,800 571 Climbing Tampa TRACON
Sat 01:21:44 PM 27.7333 -82.7833 222° Southwest 93 107 4,400 550 Climbing Tampa TRACON
Sat 01:22:38 PM 27.7167 -82.7667 138° Southeast 88 101 4,900 316 Climbing Tampa TRACON
Sat 01:23:38 PM 27.6833 -82.7500 156° South 103 119 5,000  Climbing Tampa TRACON
Sat 01:24:38 PM 27.6500 -82.7333 156° South 129 148 4,900  Descending Tampa TRACON
Sat 01:25:44 PM 27.6167 -82.7167 156° South 124 143 5,000 47 Climbing Tampa TRACON
Sat 01:26:45 PM 27.6000 -82.7000 138° Southeast 121 139 5,000  Level Tampa TRACON
Sat 01:27:44 PM 27.5667 -82.6833 156° South 116 133 5,000  Level Tampa TRACON
Sat 01:28:39 PM 27.5333 -82.6667 156° South 114 131 5,000  Level Tampa TRACON
Sat 01:29:33 PM 27.5167 -82.6500 138° Southeast 116 133 5,000  Level Tampa TRACON
Sat 01:30:45 PM 27.4833 -82.6333 156° South 113 130 5,000  Level Tampa TRACON
Sat 01:31:39 PM 27.4500 -82.6167 156° South 121 139 5,000  Level Tampa TRACON
Sat 01:32:45 PM 27.4167 -82.6000 156° South 122 140 5,000  Level Tampa TRACON
Sat 01:33:39 PM 27.3833 -82.5833 156° South 117 135 5,000 -56 Level Tampa TRACON
Sat 01:34:33 PM 27.3667 -82.5667 138° Southeast 115 132 4,900  Descending Tampa TRACON
Sat 01:35:33 PM 27.3333 -82.5500 156° South 113 130 5,000 48 Climbing Tampa TRACON
Sat 01:36:39 PM 27.3000 -82.5333 156° South 111 128 5,000  Level Tampa TRACON
Sat 01:37:39 PM 27.2833 -82.5167 138° Southeast 115 132 5,000  Level Tampa TRACON
Sat 01:38:33 PM 27.2500 -82.5167 180° South 114 131 5,000  Level Tampa TRACON
Sat 01:39:39 PM 27.2167 -82.4833 138° Southeast 115 132 5,000  Level Tampa TRACON
Sat 01:40:34 PM 27.2000 -82.4833 180° South 117 135 5,000  Level Tampa TRACON
Sat 01:41:34 PM 27.1667 -82.4667 156° South 116 133 5,000  Level Tampa TRACON
Sat 01:43:00 PM 27.1339 -82.4372 141° Southeast  Level FlightAware Approximate
Sat 01:50:00 PM 26.9689 -82.2964 150° Southeast  Level FlightAware Approximate
Sat 01:51:00 PM 26.9436 -82.2799 150° Southeast  Level FlightAware Approximate
Sat 01:52:00 PM 26.9183 -82.2634 150° Southeast  Level FlightAware Approximate
Sat 01:53:00 PM 26.8930 -82.2469 150° Southeast  Level FlightAware Approximate
Sat 01:54:00 PM 26.8677 -82.2304 150° Southeast  Level FlightAware Approximate
Sat 01:55:00 PM 26.8424 -82.2139 150° Southeast  Level FlightAware Approximate
Sat 01:56:00 PM 26.8170 -82.1975 150° Southeast  Level FlightAware Approximate
Sat 01:57:00 PM 26.7917 -82.1810 150° Southeast  Level FlightAware Approximate
Sat 01:58:00 PM 26.7664 -82.1646 150° Southeast  Level FlightAware Approximate
Sat 01:59:00 PM 26.7411 -82.1481 150° Southeast  Level FlightAware Approximate
Sat 02:00:00 PM 26.7158 -82.1317 150° Southeast  Level FlightAware Approximate
Sat 02:01:00 PM 26.6905 -82.1152 150° Southeast  Level FlightAware Approximate
Sat 02:02:00 PM 26.6651 -82.0988 150° Southeast  Level FlightAware Approximate
Sat 02:03:00 PM 26.6398 -82.0824 150° Southeast  Level FlightAware Approximate
Sat 02:04:00 PM 26.6145 -82.0660 150° Southeast  Level FlightAware Approximate
Sat 02:05:00 PM 26.5891 -82.0496 150° Southeast  Level FlightAware Approximate
Sat 02:06:00 PM 26.5638 -82.0332 150° Southeast  Level FlightAware Approximate
Sat 02:07:00 PM 26.5385 -82.0168 150° Southeast  Level FlightAware Approximate
Sat 02:08:00 PM 26.5131 -82.0005 150° Southeast  Level FlightAware Approximate
Sat 02:09:00 PM 26.4878 -81.9841 150° Southeast  Level FlightAware Approximate
Sat 02:10:00 PM 26.4625 -81.9677 150° Southeast  Level FlightAware Approximate
Sat 02:11:00 PM 26.4371 -81.9514 150° Southeast  Level FlightAware Approximate
Sat 02:12:00 PM 26.4118 -81.9350 150° Southeast  Level FlightAware Approximate
Sat 02:13:00 PM 26.3864 -81.9187 150° Southeast  Level FlightAware Approximate
Sat 02:14:00 PM 26.3611 -81.9023 150° Southeast  Level FlightAware Approximate
Sat 02:15:00 PM 26.3358 -81.8860 150° Southeast  Level FlightAware Approximate
Sat 02:16:00 PM 26.3104 -81.8697 150° Southeast  Level FlightAware Approximate
Sat 02:17:00 PM 26.2850 -81.8534 150° Southeast  Level FlightAware Approximate
Sat 02:18:00 PM 26.2597 -81.8371 150° Southeast  Level FlightAware Approximate
Sat 02:19:00 PM 26.2343 -81.8208 150° Southeast  Level FlightAware Approximate
Sat 02:20:00 PM 26.2090 -81.8045 150° Southeast  Level FlightAware Approximate
Sat 02:21:00 PM 26.1836 -81.7882 150° Southeast  Level FlightAware Approximate
Sat 02:22:00 PM 26.1583 -81.7720 150° Southeast  Level FlightAware Approximate
Sat 02:23:00 PM 26.1500 -81.7667 150° Southeast  Level FlightAware Approximate
Sat 02:24:00 PM 26.1524 -81.7756 150° Southeast  Level Estimated
Sat 02:25:00 PM 26.1524 -81.7756 150° Southeast  Level Estimated
Sat 02:26:00 PM 26.1524 -81.7756 150° Southeast  Level Estimated
Sat 02:27:00 PM 26.1524 -81.7756 150° Southeast  Level Estimated
Sat 02:28:00 PM 26.1524 -81.7756 150° Southeast  Level Estimated
Sat 02:29:00 PM 26.1524 -81.7756 150° Southeast  Level Estimated
Sat 02:30:00 PM 26.1524 -81.7756 150° Southeast  Level Estimated

Login

Don't have an account? Register now (free) for customized features, flight alerts, and more!